Main page


Airports :

Tarbes Lourdes, France

Tarbes–Lourdes–Pyrénées Airport

latitude: 43-11N, longitude: 000-00W, elevation: 379 m

Current weather observation

The report was made 15 minutes ago, at 23:00 UTC
Wind 4 kt from the South
Temperature -1°C
Humidity 86%
Pressure 1020 hPa
Visibility 10 km or more
no clouds below 1500 m and no cumulonimbus

METAR: LFBT 222300Z AUTO 18004KT CAVOK M01/M03 Q1020 NOSIG

Time: 00:15 (23:15 UTC)


The report was made 4 hours and 16 minutes ago, at 18:59 UTC
Forecast valid from 22 at 18 UTC to 23 at 18 UTC
Wind 5 kt from the West
Visibility 10 km or more
no clouds below 1500 m and no cumulonimbus
from 23 at 07 UTC to 23 at 09 UTC
Broken clouds at a height of 7000 ft
from 23 at 13 UTC to 23 at 17 UTC
Visibility: 4000 m
Broken clouds at a height of 1300 ft

TAF: LFBT 221859Z 2218/2318 28005KT CAVOK BECMG 2307/2309 BKN070 TEMPO 2313/2317 4000 RA BKN013

Weather observations and forecasts of more than 4000 airports (METAR and TAF reports).

The available stations are represented by yellow and red dots on the map.

Hover mouse over dot to see the name of the station.

Then click to see weather observations and forecasts.

To change the map : click on the green buttons with a black cross to zoom in, on the green button with a dash to zoom out, or on the green arrows for adjacent maps.